OK37 weather

Dog Iron Ranch Airport
Oologah, Oklahoma, United States

Public forecast

Using degrees Fahrenheit for public forecast. Weather courtesy of forecast.io.

METAR (pilot weather report)

Closest report is Claremore Regional Airport, 14.0 nm (25.9 km) SE. Retrieved 2019/04/19 15:35 UTC (19 minutes ago):

KGCM 191535Z AUTO 01012G20KT 10SM SCT032 SCT044 12/04 A3006 RMK AO2

TAF (pilot weather forecast)

Forecast is more than 6 hours old.

Closest forecast is Tulsa International Airport, 19.5 nm (36.0 km) SSW. Retrieved 2019/04/19 06:22 UTC (10 hours ago):

TAF KTUL 190520Z 1906/2006 33011KT P6SM BKN100 FM191600 34012G20KT P6SM SCT250 FM200000 34009KT P6SM SKC